createdAt,value
2023-05-11T00:01:26.270Z,13.30
2023-05-11T00:03:31.101Z,13.20
2023-05-11T00:05:34.593Z,13.10
2023-05-11T00:07:37.838Z,13.10
2023-05-11T00:09:41.836Z,13.10
2023-05-11T00:11:45.083Z,13.20
2023-05-11T00:13:48.468Z,13.30
2023-05-11T00:15:51.801Z,13.40
2023-05-11T00:17:55.140Z,13.10
2023-05-11T00:19:59.776Z,13.10
2023-05-11T00:22:03.212Z,13.20
2023-05-11T00:24:07.062Z,13.00
2023-05-11T00:26:10.356Z,13.10
2023-05-11T00:28:13.844Z,13.20
2023-05-11T00:30:17.477Z,13.10
2023-05-11T00:32:20.898Z,13.10
2023-05-11T00:34:24.225Z,13.10
2023-05-11T00:36:28.871Z,13.00
2023-05-11T00:38:33.173Z,13.10
2023-05-11T00:40:36.524Z,13.20
2023-05-11T00:42:39.787Z,13.00
2023-05-11T00:44:43.378Z,13.00
2023-05-11T00:46:47.748Z,13.10
2023-05-11T00:48:51.116Z,13.10
2023-05-11T00:50:54.682Z,13.10
2023-05-11T00:53:03.403Z,13.00
2023-05-11T00:55:07.910Z,13.00
2023-05-11T00:57:11.314Z,12.80
2023-05-11T00:59:14.708Z,12.70
2023-05-11T01:01:18.908Z,12.80
2023-05-11T01:03:22.415Z,12.60
2023-05-11T01:05:31.448Z,12.70
2023-05-11T01:07:42.721Z,12.70
2023-05-11T01:09:55.427Z,12.80
2023-05-11T01:12:05.368Z,12.80
2023-05-11T01:14:16.109Z,12.80
2023-05-11T01:16:22.272Z,12.90
2023-05-11T01:18:29.510Z,13.00
2023-05-11T01:20:33.131Z,13.00
2023-05-11T01:22:49.365Z,13.00
2023-05-11T01:25:14.752Z,13.00
2023-05-11T01:27:47.450Z,12.80
2023-05-11T01:30:32.685Z,12.90
2023-05-11T01:32:41.802Z,12.80
2023-05-11T01:34:47.455Z,12.80
2023-05-11T01:36:54.782Z,12.90
2023-05-11T01:39:02.396Z,12.80
2023-05-11T01:41:15.180Z,12.90
2023-05-11T01:43:22.237Z,13.10
2023-05-11T01:45:29.090Z,13.00
2023-05-11T01:47:33.539Z,13.10
2023-05-11T01:49:39.969Z,13.00
2023-05-11T01:51:45.176Z,13.10
2023-05-11T01:53:49.215Z,13.20
2023-05-11T01:55:54.045Z,13.10
2023-05-11T01:57:58.314Z,13.00
2023-05-11T02:00:02.151Z,12.80
2023-05-11T02:02:07.085Z,12.80
2023-05-11T02:04:12.057Z,12.70
2023-05-11T02:06:18.985Z,12.90
2023-05-11T02:08:23.396Z,12.90
2023-05-11T02:10:28.274Z,13.00
2023-05-11T02:12:33.880Z,13.00
2023-05-11T02:14:38.041Z,13.00
2023-05-11T02:16:41.999Z,13.00
2023-05-11T02:18:45.978Z,13.00
2023-05-11T02:20:50.758Z,13.00
2023-05-11T02:22:56.579Z,13.00
2023-05-11T02:24:59.815Z,13.00
2023-05-11T02:27:03.276Z,13.00
2023-05-11T02:29:06.553Z,13.00
2023-05-11T02:31:17.677Z,13.00
2023-05-11T02:33:23.654Z,13.10
2023-05-11T02:35:31.349Z,13.10
2023-05-11T02:37:36.377Z,13.10
2023-05-11T02:39:45.427Z,13.10
2023-05-11T02:41:51.085Z,12.90
2023-05-11T02:43:57.029Z,12.80
2023-05-11T02:46:04.120Z,12.70
2023-05-11T02:48:10.856Z,12.80
2023-05-11T02:50:16.439Z,12.80
2023-05-11T02:52:21.039Z,12.80
2023-05-11T02:54:25.514Z,12.70
2023-05-11T02:56:31.030Z,12.80
2023-05-11T02:58:34.698Z,12.80
2023-05-11T03:00:39.675Z,12.80
2023-05-11T03:02:43.311Z,12.70
2023-05-11T03:04:46.658Z,12.90
2023-05-11T03:06:49.850Z,12.90
2023-05-11T03:08:53.353Z,13.10
2023-05-11T03:10:59.001Z,13.00
2023-05-11T03:13:05.102Z,12.90
2023-05-11T03:15:12.052Z,13.00
2023-05-11T03:17:16.489Z,12.90
2023-05-11T03:19:20.442Z,12.80
2023-05-11T03:21:26.038Z,12.80
2023-05-11T03:23:30.367Z,12.70
2023-05-11T03:25:34.039Z,12.60
2023-05-11T03:27:38.629Z,12.70
2023-05-11T03:29:45.363Z,12.70
2023-05-11T03:31:51.136Z,12.70
2023-05-11T03:33:54.803Z,12.80
2023-05-11T03:35:59.825Z,12.70
2023-05-11T03:38:03.643Z,12.60
2023-05-11T03:40:10.233Z,12.60
2023-05-11T03:42:16.463Z,12.60
2023-05-11T03:44:22.579Z,12.70
2023-05-11T03:46:29.936Z,12.70
2023-05-11T03:48:34.272Z,12.70
2023-05-11T03:50:39.080Z,12.80
2023-05-11T03:52:42.821Z,12.80
2023-05-11T03:54:46.402Z,12.90
2023-05-11T03:56:49.783Z,12.80
2023-05-11T03:58:54.433Z,12.90
2023-05-11T04:00:58.109Z,12.70
2023-05-11T04:03:06.793Z,12.90
2023-05-11T04:05:11.141Z,12.90
2023-05-11T04:07:14.512Z,12.80
2023-05-11T04:09:18.085Z,12.90
2023-05-11T04:11:22.314Z,12.80
2023-05-11T04:13:25.572Z,13.00
2023-05-11T04:15:28.811Z,13.00
2023-05-11T04:17:32.197Z,13.00
2023-05-11T04:19:37.139Z,13.00
2023-05-11T04:21:40.424Z,12.90
2023-05-11T04:23:43.697Z,13.00
2023-05-11T04:25:47.100Z,13.10
2023-05-11T04:27:50.337Z,12.90
2023-05-11T04:29:53.870Z,12.80
2023-05-11T04:31:57.362Z,13.00
2023-05-11T04:34:00.591Z,13.10
2023-05-11T04:36:06.338Z,12.70
2023-05-11T04:38:09.611Z,12.70
2023-05-11T04:40:14.004Z,12.90
2023-05-11T04:42:17.156Z,13.00
2023-05-11T04:44:20.317Z,13.00
2023-05-11T04:46:24.003Z,13.20
2023-05-11T04:48:27.545Z,13.30
2023-05-11T04:50:30.779Z,13.30
2023-05-11T04:52:35.462Z,13.10
2023-05-11T04:54:39.248Z,13.20
2023-05-11T04:56:42.637Z,13.20
2023-05-11T04:58:45.880Z,13.00
2023-05-11T05:00:49.105Z,13.00
2023-05-11T05:02:52.689Z,13.00
2023-05-11T05:04:56.061Z,13.20
2023-05-11T05:06:59.982Z,13.30
2023-05-11T05:09:04.893Z,13.30
2023-05-11T05:11:08.215Z,13.30
2023-05-11T05:13:11.788Z,13.00
2023-05-11T05:15:15.342Z,13.10
2023-05-11T05:17:18.625Z,13.20
2023-05-11T05:19:21.861Z,13.30
2023-05-11T05:21:25.837Z,13.30
2023-05-11T05:23:29.209Z,13.40
2023-05-11T05:25:34.960Z,13.60
2023-05-11T05:27:38.357Z,13.50
2023-05-11T05:29:41.694Z,13.60
2023-05-11T05:31:45.179Z,13.50
2023-05-11T05:33:48.679Z,13.60
2023-05-11T05:35:51.918Z,13.60
2023-05-11T05:37:55.461Z,13.70
2023-05-11T05:39:58.889Z,13.80
2023-05-11T05:42:04.293Z,13.70
2023-05-11T05:44:07.942Z,13.60
2023-05-11T05:46:11.182Z,13.50
2023-05-11T05:48:14.466Z,13.70
2023-05-11T05:50:18.095Z,13.80
2023-05-11T05:52:21.569Z,13.60
2023-05-11T05:54:24.904Z,13.60
2023-05-11T05:56:28.144Z,13.50
2023-05-11T05:58:33.073Z,13.50
2023-05-11T06:00:37.202Z,13.40
2023-05-11T06:02:40.567Z,13.30
2023-05-11T06:04:43.944Z,13.40
2023-05-11T06:06:47.373Z,13.40
2023-05-11T06:08:51.778Z,13.50
2023-05-11T06:10:55.467Z,13.40
2023-05-11T06:12:58.710Z,13.60
2023-05-11T06:15:03.760Z,13.30
2023-05-11T06:17:06.913Z,13.60
2023-05-11T06:19:10.361Z,13.70
2023-05-11T06:21:13.734Z,13.70
2023-05-11T06:23:17.020Z,13.60
2023-05-11T06:25:20.294Z,13.90
2023-05-11T06:27:23.525Z,13.90
2023-05-11T06:29:26.860Z,13.70
2023-05-11T06:31:31.694Z,13.70
2023-05-11T06:33:35.668Z,14.00
2023-05-11T06:35:39.041Z,13.90
2023-05-11T06:37:42.500Z,14.10
2023-05-11T06:39:49.208Z,13.90
2023-05-11T06:41:55.304Z,14.10
2023-05-11T06:44:00.912Z,14.20
2023-05-11T06:46:04.692Z,14.10
2023-05-11T06:48:09.504Z,14.10
2023-05-11T06:50:12.934Z,14.30
2023-05-11T06:52:16.279Z,14.30
2023-05-11T06:54:19.509Z,14.10
2023-05-11T06:56:23.037Z,13.90
2023-05-11T06:58:27.029Z,14.00
2023-05-11T07:00:30.410Z,14.00
2023-05-11T07:02:33.828Z,14.10
2023-05-11T07:04:38.521Z,14.20
2023-05-11T07:06:41.907Z,13.70
2023-05-11T07:08:45.303Z,14.00
2023-05-11T07:10:48.642Z,14.10
2023-05-11T07:12:52.148Z,13.60
2023-05-11T07:14:55.556Z,13.70
2023-05-11T07:16:58.865Z,13.80
2023-05-11T07:19:02.298Z,13.60
2023-05-11T07:21:07.046Z,13.70
2023-05-11T07:23:10.355Z,13.70
2023-05-11T07:25:13.664Z,13.70
2023-05-11T07:27:16.924Z,13.60
2023-05-11T07:29:20.248Z,13.60
2023-05-11T07:31:23.625Z,13.80
2023-05-11T07:33:26.909Z,13.60
2023-05-11T07:35:30.993Z,13.50
2023-05-11T07:37:35.766Z,13.40
2023-05-11T07:39:39.025Z,13.40
2023-05-11T07:41:42.400Z,13.30
2023-05-11T07:43:45.817Z,13.40
2023-05-11T07:45:49.108Z,13.60
2023-05-11T07:47:53.593Z,13.80
2023-05-11T07:49:56.918Z,13.70
2023-05-11T07:52:00.263Z,13.80
2023-05-11T07:54:05.646Z,13.70
2023-05-11T07:56:10.599Z,13.70
2023-05-11T07:58:13.961Z,13.80
2023-05-11T08:00:17.875Z,14.00
2023-05-11T08:02:21.433Z,14.00
2023-05-11T08:04:25.208Z,14.10
2023-05-11T08:06:28.480Z,14.40
2023-05-11T08:08:31.749Z,14.30
2023-05-11T08:10:37.014Z,14.30
2023-05-11T08:12:40.441Z,14.20
2023-05-11T08:14:44.406Z,14.30
2023-05-11T08:16:48.589Z,14.40
2023-05-11T08:18:52.187Z,14.30
2023-05-11T08:20:55.678Z,14.20
2023-05-11T08:22:58.974Z,13.90
2023-05-11T08:25:02.264Z,13.80
2023-05-11T08:27:07.120Z,13.60
2023-05-11T08:29:11.049Z,13.80
2023-05-11T08:31:15.232Z,13.90
2023-05-11T08:33:35.783Z,13.90
2023-05-11T08:35:40.984Z,13.80
2023-05-11T08:37:44.424Z,13.80
2023-05-11T08:39:48.164Z,13.50
2023-05-11T08:41:52.454Z,13.70
2023-05-11T08:43:58.836Z,13.90
2023-05-11T08:46:05.289Z,13.90
2023-05-11T08:48:08.845Z,13.90
2023-05-11T08:50:12.460Z,13.60
2023-05-11T08:52:17.940Z,13.40
2023-05-11T08:54:21.136Z,13.30
2023-05-11T08:56:26.835Z,13.50
2023-05-11T08:58:31.318Z,13.70
2023-05-11T09:00:36.689Z,13.90
2023-05-11T09:02:40.453Z,14.10
2023-05-11T09:04:46.092Z,14.20
2023-05-11T09:06:51.799Z,14.40
2023-05-11T09:08:55.587Z,14.20
2023-05-11T09:10:59.483Z,14.20
2023-05-11T09:13:02.712Z,14.20
2023-05-11T09:15:06.829Z,14.60
2023-05-11T09:17:11.640Z,14.50
2023-05-11T09:19:16.910Z,14.60
2023-05-11T09:21:20.998Z,14.50
2023-05-11T09:23:27.214Z,14.50
2023-05-11T09:25:35.232Z,14.60
2023-05-11T09:27:43.161Z,14.30
2023-05-11T09:29:51.814Z,14.20
2023-05-11T09:31:55.755Z,14.10
2023-05-11T09:34:15.960Z,14.40
2023-05-11T09:36:25.553Z,14.40
2023-05-11T09:38:28.855Z,14.50
2023-05-11T09:40:34.087Z,14.70
2023-05-11T09:42:37.723Z,14.70
2023-05-11T09:44:41.797Z,14.60
2023-05-11T09:46:46.391Z,14.40
2023-05-11T09:49:00.353Z,14.40
2023-05-11T09:51:07.325Z,14.30
2023-05-11T09:53:11.228Z,14.30
2023-05-11T09:55:14.565Z,14.30
2023-05-11T09:57:28.607Z,14.10
2023-05-11T09:59:39.678Z,14.10
2023-05-11T10:01:42.992Z,14.20
2023-05-11T10:03:58.187Z,14.20
2023-05-11T10:06:10.701Z,14.30
2023-05-11T10:08:14.245Z,14.30
2023-05-11T10:10:18.720Z,14.00
2023-05-11T10:12:23.792Z,14.10
2023-05-11T10:14:29.843Z,13.90
2023-05-11T10:16:33.864Z,13.90
2023-05-11T10:18:38.339Z,14.00
2023-05-11T10:20:42.297Z,13.90
2023-05-11T10:22:47.629Z,14.00
2023-05-11T10:24:52.213Z,13.80
2023-05-11T10:26:57.852Z,13.70
2023-05-11T10:29:01.848Z,13.60
2023-05-11T10:31:05.929Z,13.40
2023-05-11T10:33:10.812Z,13.50
2023-05-11T10:35:14.653Z,13.50
2023-05-11T10:37:18.219Z,13.30
2023-05-11T10:39:23.456Z,13.50
2023-05-11T10:41:52.403Z,13.30
2023-05-11T10:44:21.084Z,13.40
2023-05-11T10:46:39.177Z,13.40
2023-05-11T10:49:10.270Z,13.50
2023-05-11T10:51:57.481Z,13.40
2023-05-11T10:54:14.618Z,13.60
2023-05-11T10:56:50.902Z,13.50
2023-05-11T10:59:17.457Z,13.60
2023-05-11T11:01:32.561Z,13.70
2023-05-11T11:03:36.241Z,13.60
2023-05-11T11:05:40.124Z,13.50
2023-05-11T11:08:04.157Z,13.40
2023-05-11T11:10:09.189Z,13.50
2023-05-11T11:12:14.879Z,13.30
2023-05-11T11:14:19.402Z,12.90
2023-05-11T11:16:25.111Z,13.20
2023-05-11T11:18:30.193Z,13.50
2023-05-11T11:20:48.844Z,13.80
2023-05-11T11:22:52.243Z,13.70
2023-05-11T11:24:55.654Z,13.40
2023-05-11T11:26:58.896Z,13.50
2023-05-11T11:29:13.438Z,13.40
2023-05-11T11:31:26.737Z,13.40
2023-05-11T11:33:34.800Z,13.70
2023-05-11T11:35:47.405Z,13.50
2023-05-11T11:38:03.864Z,13.40
2023-05-11T11:40:15.273Z,13.70
2023-05-11T11:42:20.427Z,13.70
2023-05-11T11:44:25.251Z,13.60
2023-05-11T11:46:30.025Z,13.50
2023-05-11T11:48:35.846Z,13.40
2023-05-11T11:50:40.102Z,13.40
2023-05-11T11:52:43.700Z,13.40
2023-05-11T11:54:47.431Z,13.50
2023-05-11T11:56:50.749Z,13.40
2023-05-11T11:59:00.975Z,13.60
2023-05-11T12:01:06.029Z,13.60
2023-05-11T12:03:11.399Z,13.30
2023-05-11T12:05:19.019Z,13.60
2023-05-11T12:07:23.104Z,13.90
2023-05-11T12:09:27.810Z,13.90
2023-05-11T12:11:31.306Z,14.10
2023-05-11T12:13:35.597Z,13.70
2023-05-11T12:15:38.928Z,13.60
2023-05-11T12:17:43.586Z,13.70
2023-05-11T12:19:47.083Z,13.70
2023-05-11T12:21:50.370Z,13.90
2023-05-11T12:23:54.992Z,13.50
2023-05-11T12:26:08.490Z,13.50
2023-05-11T12:28:13.042Z,13.30
2023-05-11T12:30:26.885Z,13.30
2023-05-11T12:32:31.737Z,13.20
2023-05-11T12:34:36.614Z,13.40
2023-05-11T12:36:40.411Z,13.10
2023-05-11T12:38:47.816Z,13.10
2023-05-11T12:40:52.495Z,13.40
2023-05-11T12:42:57.425Z,13.40
2023-05-11T12:45:00.744Z,13.40
2023-05-11T12:47:04.097Z,13.40
2023-05-11T12:49:07.995Z,13.30
2023-05-11T12:51:12.784Z,13.30
2023-05-11T12:53:17.019Z,13.20
2023-05-11T12:55:29.183Z,13.30
2023-05-11T12:57:33.956Z,13.10
2023-05-11T12:59:39.045Z,13.00
2023-05-11T13:01:42.414Z,12.80
2023-05-11T13:03:47.642Z,12.90
2023-05-11T13:05:51.662Z,12.90
2023-05-11T13:08:07.175Z,12.60
2023-05-11T13:10:11.473Z,12.40
2023-05-11T13:12:31.970Z,12.40
2023-05-11T13:14:38.643Z,12.70
2023-05-11T13:16:42.003Z,12.80
2023-05-11T13:18:58.571Z,13.00
2023-05-11T13:21:09.510Z,12.90
2023-05-11T13:23:16.397Z,12.70
2023-05-11T13:25:21.656Z,12.70
2023-05-11T13:27:25.344Z,12.50
2023-05-11T13:29:28.842Z,12.80
2023-05-11T13:31:32.242Z,12.70
2023-05-11T13:33:35.670Z,12.80
2023-05-11T13:35:40.142Z,12.60
2023-05-11T13:37:43.586Z,12.70
2023-05-11T13:39:48.277Z,12.80
2023-05-11T13:41:55.956Z,12.50
2023-05-11T13:44:10.008Z,12.60
2023-05-11T13:46:31.098Z,12.40
2023-05-11T13:48:34.606Z,12.20
2023-05-11T13:50:37.940Z,12.30
2023-05-11T13:52:41.768Z,12.50
2023-05-11T13:54:44.969Z,12.50
2023-05-11T13:56:50.076Z,12.40
2023-05-11T13:58:53.291Z,12.50
2023-05-11T14:01:07.943Z,12.30
2023-05-11T14:03:11.913Z,12.20
2023-05-11T14:05:15.602Z,12.20
2023-05-11T14:07:18.825Z,12.20
2023-05-11T14:09:25.307Z,12.10
2023-05-11T14:11:28.546Z,12.10
2023-05-11T14:13:33.273Z,12.20
2023-05-11T14:15:37.477Z,12.30
2023-05-11T14:17:43.150Z,12.20
2023-05-11T14:19:47.572Z,12.30
2023-05-11T14:21:50.885Z,12.50
2023-05-11T14:24:10.004Z,12.50
2023-05-11T14:26:15.192Z,12.40
2023-05-11T14:28:18.765Z,12.50
2023-05-11T14:30:23.519Z,12.60
2023-05-11T14:32:27.338Z,12.50
2023-05-11T14:34:30.603Z,12.60
2023-05-11T14:36:33.991Z,12.70
2023-05-11T14:38:37.435Z,12.80
2023-05-11T14:40:40.825Z,12.70
2023-05-11T14:42:44.141Z,12.80
2023-05-11T14:44:47.764Z,12.80
2023-05-11T14:46:52.403Z,12.60
2023-05-11T14:48:56.278Z,12.60
2023-05-11T14:50:59.463Z,12.70
2023-05-11T14:53:02.921Z,12.70
2023-05-11T14:55:06.873Z,12.80
2023-05-11T14:57:10.116Z,13.00
2023-05-11T14:59:13.404Z,13.20
2023-05-11T15:01:16.861Z,13.40
2023-05-11T15:03:21.742Z,13.20
2023-05-11T15:05:24.967Z,13.20
2023-05-11T15:07:28.365Z,12.80
2023-05-11T15:09:32.199Z,12.40
2023-05-11T15:11:37.269Z,12.30
2023-05-11T15:13:41.136Z,12.30
2023-05-11T15:15:44.487Z,12.40
2023-05-11T15:17:48.434Z,12.60
2023-05-11T15:19:53.216Z,12.80
2023-05-11T15:21:56.509Z,12.90
2023-05-11T15:23:59.800Z,12.80
2023-05-11T15:26:03.566Z,12.80
2023-05-11T15:28:07.382Z,13.00
2023-05-11T15:30:11.532Z,12.90
2023-05-11T15:32:17.691Z,13.00
2023-05-11T15:34:21.004Z,12.90
2023-05-11T15:36:29.736Z,12.80
2023-05-11T15:38:33.218Z,12.70
2023-05-11T15:40:36.586Z,12.50
2023-05-11T15:42:40.163Z,12.50
2023-05-11T15:44:43.532Z,12.40
2023-05-11T15:46:47.535Z,12.50
2023-05-11T15:48:50.877Z,12.60
2023-05-11T15:50:54.331Z,12.60
2023-05-11T15:53:01.031Z,12.60
2023-05-11T15:55:05.406Z,12.70
2023-05-11T15:57:08.750Z,12.50
2023-05-11T15:59:12.045Z,12.50
2023-05-11T16:01:15.375Z,12.30
2023-05-11T16:03:19.949Z,12.30
2023-05-11T16:05:23.559Z,12.20
2023-05-11T16:07:27.297Z,12.20
2023-05-11T16:09:31.954Z,12.40
2023-05-11T16:11:35.277Z,12.30
2023-05-11T16:13:38.602Z,12.40
2023-05-11T16:15:41.857Z,12.30
2023-05-11T16:17:46.366Z,12.30
2023-05-11T16:19:49.979Z,12.10
2023-05-11T16:21:53.236Z,12.20
2023-05-11T16:23:56.755Z,12.30
2023-05-11T16:26:01.485Z,12.00
2023-05-11T16:28:05.367Z,12.20
2023-05-11T16:30:22.347Z,12.20
2023-05-11T16:32:27.653Z,12.40
2023-05-11T16:34:30.928Z,12.60
2023-05-11T16:36:34.222Z,12.40
2023-05-11T16:38:37.640Z,12.40
2023-05-11T16:40:40.853Z,12.40
2023-05-11T16:42:49.210Z,12.40
2023-05-11T16:44:52.475Z,12.30
2023-05-11T16:46:55.921Z,12.20
2023-05-11T16:49:01.177Z,12.30
2023-05-11T16:51:05.633Z,12.30
2023-05-11T16:53:09.420Z,12.10
2023-05-11T16:55:12.749Z,12.30
2023-05-11T16:57:16.343Z,12.20
2023-05-11T16:59:21.017Z,12.10
2023-05-11T17:01:24.853Z,12.10
2023-05-11T17:03:28.469Z,12.00
2023-05-11T17:05:31.817Z,12.20
2023-05-11T17:07:35.560Z,12.10
2023-05-11T17:09:38.897Z,12.00
2023-05-11T17:11:42.390Z,11.90
2023-05-11T17:13:45.890Z,11.80
2023-05-11T17:15:51.597Z,11.80
2023-05-11T17:17:55.215Z,11.90
2023-05-11T17:19:58.598Z,11.80
2023-05-11T17:22:01.850Z,11.80
2023-05-11T17:24:05.428Z,12.00
2023-05-11T17:26:10.185Z,12.10
2023-05-11T17:28:13.474Z,12.10
2023-05-11T17:30:21.957Z,12.20
2023-05-11T17:32:27.356Z,12.00
2023-05-11T17:34:31.304Z,11.90
2023-05-11T17:36:35.693Z,11.90
2023-05-11T17:38:39.034Z,11.80
2023-05-11T17:40:42.222Z,11.90
2023-05-11T17:42:45.505Z,11.90
2023-05-11T17:44:48.744Z,12.00
2023-05-11T17:46:52.008Z,11.80
2023-05-11T17:48:56.998Z,12.00
2023-05-11T17:51:00.307Z,11.90
2023-05-11T17:53:03.525Z,11.90
2023-05-11T17:55:08.144Z,12.00
2023-05-11T17:57:11.458Z,12.10
2023-05-11T17:59:15.302Z,12.00
2023-05-11T18:01:19.692Z,11.90
2023-05-11T18:03:23.198Z,11.70
2023-05-11T18:05:40.477Z,11.50
2023-05-11T18:07:51.338Z,11.40
2023-05-11T18:09:54.562Z,11.50
2023-05-11T18:11:57.841Z,11.60
2023-05-11T18:14:01.023Z,11.70
2023-05-11T18:16:04.325Z,11.50
2023-05-11T18:18:07.939Z,11.60
2023-05-11T18:20:12.134Z,11.70
2023-05-11T18:22:17.531Z,11.70
2023-05-11T18:24:20.896Z,11.50
2023-05-11T18:26:26.333Z,11.40
2023-05-11T18:28:29.710Z,11.30
2023-05-11T18:30:35.759Z,11.20
2023-05-11T18:32:39.360Z,11.20
2023-05-11T18:34:43.366Z,11.10
2023-05-11T18:36:46.939Z,11.10
2023-05-11T18:38:51.567Z,11.10
2023-05-11T18:40:56.354Z,11.10
2023-05-11T18:42:59.887Z,11.10
2023-05-11T18:45:03.895Z,11.20
2023-05-11T18:47:08.485Z,11.10
2023-05-11T18:49:11.763Z,11.20
2023-05-11T18:51:19.182Z,11.20
2023-05-11T18:53:22.491Z,11.50
2023-05-11T18:57:34.676Z,11.10
2023-05-11T18:59:41.557Z,11.00
2023-05-11T19:01:48.197Z,10.90
2023-05-11T19:03:52.144Z,11.10
2023-05-11T19:05:55.375Z,11.00
2023-05-11T19:07:58.850Z,11.10
2023-05-11T19:10:02.187Z,11.00
2023-05-11T19:12:07.732Z,11.10
2023-05-11T19:14:14.697Z,11.10
2023-05-11T19:16:19.693Z,11.10
2023-05-11T19:18:23.162Z,11.20
2023-05-11T19:20:26.608Z,11.00
2023-05-11T19:22:30.326Z,11.10
2023-05-11T19:24:33.523Z,11.00
2023-05-11T19:26:38.377Z,11.10
2023-05-11T19:28:42.966Z,10.90
2023-05-11T19:30:46.300Z,10.90
2023-05-11T19:32:49.681Z,11.00
2023-05-11T19:34:53.166Z,11.10
2023-05-11T19:36:56.401Z,11.10
2023-05-11T19:38:59.631Z,11.20
2023-05-11T19:41:03.283Z,11.20
2023-05-11T19:43:06.653Z,11.30
2023-05-11T19:45:12.789Z,11.40
2023-05-11T19:47:16.505Z,11.50
2023-05-11T19:49:20.907Z,11.30
2023-05-11T19:51:24.420Z,11.40
2023-05-11T19:53:28.120Z,11.40
2023-05-11T19:55:31.686Z,11.30
2023-05-11T19:57:37.439Z,11.40
2023-05-11T19:59:49.963Z,11.40
2023-05-11T20:01:55.038Z,11.40
2023-05-11T20:04:01.759Z,11.50
2023-05-11T20:06:05.119Z,11.40
2023-05-11T20:08:08.356Z,11.30
2023-05-11T20:10:12.742Z,11.20
2023-05-11T20:12:16.244Z,11.20
2023-05-11T20:14:19.840Z,11.30
2023-05-11T20:16:23.321Z,11.30
2023-05-11T20:18:28.191Z,11.30
2023-05-11T20:20:32.643Z,11.50
2023-05-11T20:22:36.298Z,11.60
2023-05-11T20:24:39.766Z,11.50
2023-05-11T20:26:42.922Z,11.60
2023-05-11T20:28:46.318Z,11.50
2023-05-11T20:30:50.159Z,11.30
2023-05-11T20:35:00.981Z,11.20
2023-05-11T20:37:04.220Z,11.30
2023-05-11T20:39:07.780Z,11.10
2023-05-11T20:41:11.314Z,11.20
2023-05-11T20:43:15.076Z,11.40
2023-05-11T20:45:22.564Z,11.40
2023-05-11T20:47:25.810Z,11.50
2023-05-11T20:49:38.256Z,11.50
2023-05-11T20:51:44.413Z,11.50
2023-05-11T20:53:47.716Z,11.60
2023-05-11T20:55:51.851Z,11.60
2023-05-11T20:57:55.098Z,11.60
2023-05-11T21:02:05.019Z,11.50
2023-05-11T21:04:08.759Z,11.50
2023-05-11T21:06:12.089Z,11.60
2023-05-11T21:08:16.825Z,11.50
2023-05-11T21:10:20.302Z,11.50
2023-05-11T21:12:23.700Z,11.40
2023-05-11T21:14:27.058Z,11.30
2023-05-11T21:16:30.351Z,11.60
2023-05-11T21:18:34.445Z,11.70
2023-05-11T21:20:37.991Z,11.70
2023-05-11T21:22:41.361Z,11.70
2023-05-11T21:24:46.212Z,11.90
2023-05-11T21:26:50.031Z,11.90
2023-05-11T21:28:53.235Z,11.70
2023-05-11T21:30:58.036Z,11.60
2023-05-11T21:33:01.409Z,11.60
2023-05-11T21:35:05.185Z,11.60
2023-05-11T21:37:08.564Z,11.60
2023-05-11T21:39:13.078Z,11.50
2023-05-11T21:41:18.622Z,11.60
2023-05-11T21:43:22.325Z,11.70
2023-05-11T21:45:25.519Z,11.60
2023-05-11T21:47:28.981Z,11.50
2023-05-11T21:49:33.220Z,11.40
2023-05-11T21:51:36.972Z,11.50
2023-05-11T21:53:40.541Z,11.60
2023-05-11T21:55:43.805Z,11.70
2023-05-11T21:57:48.626Z,11.60
2023-05-11T21:59:51.913Z,11.70
2023-05-11T22:01:57.209Z,11.70
2023-05-11T22:04:01.257Z,11.70
2023-05-11T22:06:04.708Z,11.80
2023-05-11T22:08:15.112Z,11.70
2023-05-11T22:10:19.259Z,11.60
2023-05-11T22:12:22.618Z,11.70
2023-05-11T22:14:27.328Z,11.80
2023-05-11T22:16:30.606Z,11.80
2023-05-11T22:18:34.063Z,11.70
2023-05-11T22:20:37.421Z,11.60
2023-05-11T22:22:41.160Z,11.50
2023-05-11T22:24:44.401Z,11.50
2023-05-11T22:26:47.756Z,11.60
2023-05-11T22:28:51.205Z,11.70
2023-05-11T22:30:56.048Z,11.80
2023-05-11T22:32:59.443Z,11.70
2023-05-11T22:35:03.051Z,11.60
2023-05-11T22:37:06.920Z,11.70
2023-05-11T22:39:11.464Z,11.70
2023-05-11T22:41:14.870Z,11.50
2023-05-11T22:43:18.330Z,11.60
2023-05-11T22:45:21.708Z,11.50
2023-05-11T22:47:26.586Z,11.60
2023-05-11T22:49:30.127Z,11.80
2023-05-11T22:51:33.315Z,11.70
2023-05-11T22:53:36.557Z,11.60
2023-05-11T22:55:40.071Z,11.60
2023-05-11T22:57:44.052Z,11.60
2023-05-11T22:59:47.338Z,11.50
2023-05-11T23:01:51.218Z,11.60
2023-05-11T23:03:56.191Z,11.70
2023-05-11T23:05:59.485Z,11.80
2023-05-11T23:08:03.139Z,11.80
2023-05-11T23:10:07.551Z,11.70
2023-05-11T23:12:10.989Z,11.60
2023-05-11T23:14:14.222Z,11.80
2023-05-11T23:16:17.908Z,11.90
2023-05-11T23:18:24.677Z,11.80
2023-05-11T23:20:29.886Z,11.70
2023-05-11T23:22:33.263Z,11.50
2023-05-11T23:24:36.526Z,11.70
2023-05-11T23:26:40.082Z,11.70
2023-05-11T23:28:43.374Z,11.80
2023-05-11T23:30:47.295Z,11.70
2023-05-11T23:32:50.769Z,11.60
2023-05-11T23:34:54.027Z,11.70
2023-05-11T23:36:58.625Z,11.70
2023-05-11T23:39:01.874Z,11.70
2023-05-11T23:41:05.340Z,11.80
2023-05-11T23:43:08.781Z,11.80
2023-05-11T23:45:13.630Z,11.70
2023-05-11T23:47:17.007Z,11.70
2023-05-11T23:49:20.465Z,11.90
2023-05-11T23:51:23.814Z,12.00
2023-05-11T23:53:28.572Z,11.90
2023-05-11T23:55:32.086Z,11.80
2023-05-11T23:57:35.342Z,11.60
2023-05-11T23:59:38.670Z,11.70
